Schedule Details

Flight Number: ASX307X
Departure: Copenhagen Kastrup (EKCH) at 11:20Z
Arrival: Gdansk im. Lecha Walesy (EPGD) at 13:20Z

Weather Information
EKCH 272120Z 08010KT CAVOK 15/10 Q1025 NOSIG
EPGD 272300Z 06004KT 020V110 CAVOK 16/15 Q1025

Schedule Frequency

Route Map